sensor_id;sensor_type;location;lat;lon;timestamp;temperature;humidity
27306;DHT22;14792;50.886;6.468;2023-07-29T00:02:50;19.00;99.90
27306;DHT22;14792;50.886;6.468;2023-07-29T00:05:52;19.00;99.90
27306;DHT22;14792;50.886;6.468;2023-07-29T00:08:53;18.90;99.90
27306;DHT22;14792;50.886;6.468;2023-07-29T00:11:55;18.80;99.90
27306;DHT22;14792;50.886;6.468;2023-07-29T00:14:56;18.80;99.90
27306;DHT22;14792;50.886;6.468;2023-07-29T00:17:58;18.70;99.90
27306;DHT22;14792;50.886;6.468;2023-07-29T00:21:00;18.80;99.90
27306;DHT22;14792;50.886;6.468;2023-07-29T00:24:01;18.80;99.90
27306;DHT22;14792;50.886;6.468;2023-07-29T00:27:03;18.90;99.90
27306;DHT22;14792;50.886;6.468;2023-07-29T00:30:07;18.90;99.90
27306;DHT22;14792;50.886;6.468;2023-07-29T00:33:08;19.00;99.90
27306;DHT22;14792;50.886;6.468;2023-07-29T00:36:10;19.00;99.90
27306;DHT22;14792;50.886;6.468;2023-07-29T00:39:11;19.00;99.90
27306;DHT22;14792;50.886;6.468;2023-07-29T00:42:13;19.10;99.90
27306;DHT22;14792;50.886;6.468;2023-07-29T00:45:15;18.90;99.90
27306;DHT22;14792;50.886;6.468;2023-07-29T00:48:16;18.80;99.90
27306;DHT22;14792;50.886;6.468;2023-07-29T00:51:18;18.70;99.90
27306;DHT22;14792;50.886;6.468;2023-07-29T00:54:19;18.70;99.90
27306;DHT22;14792;50.886;6.468;2023-07-29T00:57:21;18.80;99.90
27306;DHT22;14792;50.886;6.468;2023-07-29T01:00:22;18.80;99.90
27306;DHT22;14792;50.886;6.468;2023-07-29T01:03:24;18.80;99.90
27306;DHT22;14792;50.886;6.468;2023-07-29T01:09:43;18.80;99.90
27306;DHT22;14792;50.886;6.468;2023-07-29T01:12:58;18.90;99.90
27306;DHT22;14792;50.886;6.468;2023-07-29T01:16:10;18.80;99.90
27306;DHT22;14792;50.886;6.468;2023-07-29T01:19:11;18.90;99.90
27306;DHT22;14792;50.886;6.468;2023-07-29T01:22:11;18.90;99.90
27306;DHT22;14792;50.886;6.468;2023-07-29T01:25:12;18.90;99.90
27306;DHT22;14792;50.886;6.468;2023-07-29T01:28:14;19.00;99.90
27306;DHT22;14792;50.886;6.468;2023-07-29T01:31:18;19.10;99.90
27306;DHT22;14792;50.886;6.468;2023-07-29T01:34:24;19.10;99.90
27306;DHT22;14792;50.886;6.468;2023-07-29T01:37:25;19.00;99.90
27306;DHT22;14792;50.886;6.468;2023-07-29T01:40:26;18.90;99.90
27306;DHT22;14792;50.886;6.468;2023-07-29T01:43:30;18.80;99.90
27306;DHT22;14792;50.886;6.468;2023-07-29T01:46:29;18.90;99.90
27306;DHT22;14792;50.886;6.468;2023-07-29T01:49:30;18.90;99.90
27306;DHT22;14792;50.886;6.468;2023-07-29T01:52:32;18.90;99.90
27306;DHT22;14792;50.886;6.468;2023-07-29T01:55:33;18.90;99.90
27306;DHT22;14792;50.886;6.468;2023-07-29T01:58:36;18.80;99.90
27306;DHT22;14792;50.886;6.468;2023-07-29T02:01:38;18.80;99.90
27306;DHT22;14792;50.886;6.468;2023-07-29T02:04:39;18.80;99.90
27306;DHT22;14792;50.886;6.468;2023-07-29T02:07:41;18.80;99.90
27306;DHT22;14792;50.886;6.468;2023-07-29T02:10:43;18.90;99.90
27306;DHT22;14792;50.886;6.468;2023-07-29T02:13:44;18.80;99.90
27306;DHT22;14792;50.886;6.468;2023-07-29T02:16:46;18.90;99.90
27306;DHT22;14792;50.886;6.468;2023-07-29T02:19:47;18.80;99.90
27306;DHT22;14792;50.886;6.468;2023-07-29T02:22:49;18.80;99.90
27306;DHT22;14792;50.886;6.468;2023-07-29T02:25:50;18.80;99.90
27306;DHT22;14792;50.886;6.468;2023-07-29T02:28:52;18.70;99.90
27306;DHT22;14792;50.886;6.468;2023-07-29T02:31:54;18.70;99.90
27306;DHT22;14792;50.886;6.468;2023-07-29T02:34:55;18.60;99.90
27306;DHT22;14792;50.886;6.468;2023-07-29T02:37:57;18.70;99.90
27306;DHT22;14792;50.886;6.468;2023-07-29T02:40:59;18.70;99.90
27306;DHT22;14792;50.886;6.468;2023-07-29T02:44:01;18.60;99.90
27306;DHT22;14792;50.886;6.468;2023-07-29T02:47:02;18.70;99.90
27306;DHT22;14792;50.886;6.468;2023-07-29T02:50:03;18.60;99.90
27306;DHT22;14792;50.886;6.468;2023-07-29T02:53:07;18.60;99.90
27306;DHT22;14792;50.886;6.468;2023-07-29T02:56:08;18.50;99.90
27306;DHT22;14792;50.886;6.468;2023-07-29T02:59:10;18.50;99.90
27306;DHT22;14792;50.886;6.468;2023-07-29T03:02:12;18.50;99.90
27306;DHT22;14792;50.886;6.468;2023-07-29T03:05:13;18.50;99.90
27306;DHT22;14792;50.886;6.468;2023-07-29T03:08:15;18.60;99.90
27306;DHT22;14792;50.886;6.468;2023-07-29T03:11:16;18.50;99.90
27306;DHT22;14792;50.886;6.468;2023-07-29T03:14:18;18.50;99.90
27306;DHT22;14792;50.886;6.468;2023-07-29T03:17:19;18.50;99.90
27306;DHT22;14792;50.886;6.468;2023-07-29T03:20:21;18.50;99.90
27306;DHT22;14792;50.886;6.468;2023-07-29T03:23:23;18.50;99.90
27306;DHT22;14792;50.886;6.468;2023-07-29T03:26:24;18.50;99.90
27306;DHT22;14792;50.886;6.468;2023-07-29T03:29:26;18.50;99.90
27306;DHT22;14792;50.886;6.468;2023-07-29T03:32:27;18.50;99.90
27306;DHT22;14792;50.886;6.468;2023-07-29T03:35:29;18.50;99.90
27306;DHT22;14792;50.886;6.468;2023-07-29T03:38:31;18.40;99.90
27306;DHT22;14792;50.886;6.468;2023-07-29T03:41:32;18.40;99.90
27306;DHT22;14792;50.886;6.468;2023-07-29T03:44:34;18.40;99.90
27306;DHT22;14792;50.886;6.468;2023-07-29T03:47:36;18.30;99.90
27306;DHT22;14792;50.886;6.468;2023-07-29T03:50:39;18.30;99.90
27306;DHT22;14792;50.886;6.468;2023-07-29T03:53:40;18.30;99.90
27306;DHT22;14792;50.886;6.468;2023-07-29T03:56:41;18.20;99.90
27306;DHT22;14792;50.886;6.468;2023-07-29T03:59:43;18.20;99.90
27306;DHT22;14792;50.886;6.468;2023-07-29T04:02:44;18.10;99.90
27306;DHT22;14792;50.886;6.468;2023-07-29T04:05:46;18.10;99.90
27306;DHT22;14792;50.886;6.468;2023-07-29T04:08:48;18.10;99.90
27306;DHT22;14792;50.886;6.468;2023-07-29T04:11:50;18.10;99.90
27306;DHT22;14792;50.886;6.468;2023-07-29T04:14:51;18.00;99.90
27306;DHT22;14792;50.886;6.468;2023-07-29T04:17:52;18.10;99.90
27306;DHT22;14792;50.886;6.468;2023-07-29T04:20:54;18.10;99.90
27306;DHT22;14792;50.886;6.468;2023-07-29T04:23:56;18.10;99.90
27306;DHT22;14792;50.886;6.468;2023-07-29T04:26:57;18.10;99.90
27306;DHT22;14792;50.886;6.468;2023-07-29T04:29:59;18.10;99.90
27306;DHT22;14792;50.886;6.468;2023-07-29T04:33:01;18.10;99.90
27306;DHT22;14792;50.886;6.468;2023-07-29T04:36:02;18.10;99.90
27306;DHT22;14792;50.886;6.468;2023-07-29T04:39:04;18.00;99.90
27306;DHT22;14792;50.886;6.468;2023-07-29T04:42:07;18.00;99.90
27306;DHT22;14792;50.886;6.468;2023-07-29T04:45:09;18.10;99.90
27306;DHT22;14792;50.886;6.468;2023-07-29T04:48:10;18.10;99.90
27306;DHT22;14792;50.886;6.468;2023-07-29T04:51:12;18.10;99.90
27306;DHT22;14792;50.886;6.468;2023-07-29T04:54:14;18.20;99.90
27306;DHT22;14792;50.886;6.468;2023-07-29T04:57:15;18.10;99.90
27306;DHT22;14792;50.886;6.468;2023-07-29T05:00:17;18.10;99.90
27306;DHT22;14792;50.886;6.468;2023-07-29T05:03:18;18.00;99.90
27306;DHT22;14792;50.886;6.468;2023-07-29T05:06:20;18.00;99.90
27306;DHT22;14792;50.886;6.468;2023-07-29T05:09:22;18.10;99.90
27306;DHT22;14792;50.886;6.468;2023-07-29T05:12:23;18.10;99.90
27306;DHT22;14792;50.886;6.468;2023-07-29T05:15:25;18.10;99.90
27306;DHT22;14792;50.886;6.468;2023-07-29T05:18:26;18.10;99.90
27306;DHT22;14792;50.886;6.468;2023-07-29T05:21:28;18.10;99.90
27306;DHT22;14792;50.886;6.468;2023-07-29T05:24:30;18.10;99.90
27306;DHT22;14792;50.886;6.468;2023-07-29T05:27:31;18.10;99.90
27306;DHT22;14792;50.886;6.468;2023-07-29T05:30:33;18.10;99.90
27306;DHT22;14792;50.886;6.468;2023-07-29T05:33:35;18.10;99.90
27306;DHT22;14792;50.886;6.468;2023-07-29T05:36:38;18.10;99.90
27306;DHT22;14792;50.886;6.468;2023-07-29T05:39:40;18.10;99.90
27306;DHT22;14792;50.886;6.468;2023-07-29T05:42:41;18.10;99.90
27306;DHT22;14792;50.886;6.468;2023-07-29T05:45:43;18.20;99.90
27306;DHT22;14792;50.886;6.468;2023-07-29T05:48:44;18.10;99.90
27306;DHT22;14792;50.886;6.468;2023-07-29T05:51:46;18.10;99.90
27306;DHT22;14792;50.886;6.468;2023-07-29T05:54:48;18.10;99.90
27306;DHT22;14792;50.886;6.468;2023-07-29T05:57:49;18.10;99.90
27306;DHT22;14792;50.886;6.468;2023-07-29T06:00:51;18.10;99.90
27306;DHT22;14792;50.886;6.468;2023-07-29T06:03:52;18.20;99.90
27306;DHT22;14792;50.886;6.468;2023-07-29T06:06:54;18.10;99.90
27306;DHT22;14792;50.886;6.468;2023-07-29T06:09:56;18.20;99.90
27306;DHT22;14792;50.886;6.468;2023-07-29T06:12:57;18.20;99.90
27306;DHT22;14792;50.886;6.468;2023-07-29T06:15:59;18.20;99.90
27306;DHT22;14792;50.886;6.468;2023-07-29T06:19:00;18.30;99.90
27306;DHT22;14792;50.886;6.468;2023-07-29T06:22:02;18.20;99.90
27306;DHT22;14792;50.886;6.468;2023-07-29T06:25:04;18.30;99.90
27306;DHT22;14792;50.886;6.468;2023-07-29T06:28:08;18.40;99.90
27306;DHT22;14792;50.886;6.468;2023-07-29T06:31:10;18.50;99.90
27306;DHT22;14792;50.886;6.468;2023-07-29T06:34:11;18.60;99.90
27306;DHT22;14792;50.886;6.468;2023-07-29T06:37:13;18.60;99.90
27306;DHT22;14792;50.886;6.468;2023-07-29T06:40:14;18.60;99.90
27306;DHT22;14792;50.886;6.468;2023-07-29T06:43:16;18.80;99.90
27306;DHT22;14792;50.886;6.468;2023-07-29T06:46:18;18.90;99.90
27306;DHT22;14792;50.886;6.468;2023-07-29T06:49:19;18.90;99.90
27306;DHT22;14792;50.886;6.468;2023-07-29T06:52:21;19.00;99.90
27306;DHT22;14792;50.886;6.468;2023-07-29T06:55:22;19.10;99.90
27306;DHT22;14792;50.886;6.468;2023-07-29T06:58:24;19.00;99.90
27306;DHT22;14792;50.886;6.468;2023-07-29T07:01:25;18.90;99.90
27306;DHT22;14792;50.886;6.468;2023-07-29T07:04:27;19.00;99.90
27306;DHT22;14792;50.886;6.468;2023-07-29T07:07:29;19.20;99.90
27306;DHT22;14792;50.886;6.468;2023-07-29T07:10:30;19.40;99.90
27306;DHT22;14792;50.886;6.468;2023-07-29T07:13:32;19.50;99.90
27306;DHT22;14792;50.886;6.468;2023-07-29T07:16:33;19.60;99.90
27306;DHT22;14792;50.886;6.468;2023-07-29T07:19:37;19.50;99.90
27306;DHT22;14792;50.886;6.468;2023-07-29T07:22:38;19.50;99.90
27306;DHT22;14792;50.886;6.468;2023-07-29T07:25:40;19.30;99.90
27306;DHT22;14792;50.886;6.468;2023-07-29T07:28:42;19.30;99.90
27306;DHT22;14792;50.886;6.468;2023-07-29T07:31:47;19.30;99.90
27306;DHT22;14792;50.886;6.468;2023-07-29T07:34:45;19.40;99.90
27306;DHT22;14792;50.886;6.468;2023-07-29T07:37:46;19.50;99.90
27306;DHT22;14792;50.886;6.468;2023-07-29T07:40:54;19.50;99.90
27306;DHT22;14792;50.886;6.468;2023-07-29T07:43:55;19.50;99.90
27306;DHT22;14792;50.886;6.468;2023-07-29T07:46:57;19.50;99.90
27306;DHT22;14792;50.886;6.468;2023-07-29T07:49:59;19.60;99.90
27306;DHT22;14792;50.886;6.468;2023-07-29T07:53:00;20.20;99.90
27306;DHT22;14792;50.886;6.468;2023-07-29T07:56:02;20.50;99.90
27306;DHT22;14792;50.886;6.468;2023-07-29T07:59:03;20.60;99.90
27306;DHT22;14792;50.886;6.468;2023-07-29T08:02:07;20.40;99.90
27306;DHT22;14792;50.886;6.468;2023-07-29T08:05:09;20.40;99.90
27306;DHT22;14792;50.886;6.468;2023-07-29T08:08:11;20.80;99.90
27306;DHT22;14792;50.886;6.468;2023-07-29T08:11:12;20.70;99.90
27306;DHT22;14792;50.886;6.468;2023-07-29T08:14:14;20.60;99.90
27306;DHT22;14792;50.886;6.468;2023-07-29T08:17:15;20.70;99.90
27306;DHT22;14792;50.886;6.468;2023-07-29T08:20:17;20.60;99.90
27306;DHT22;14792;50.886;6.468;2023-07-29T08:23:18;20.60;99.90
27306;DHT22;14792;50.886;6.468;2023-07-29T08:26:20;20.70;99.90
27306;DHT22;14792;50.886;6.468;2023-07-29T08:29:22;20.80;99.90
27306;DHT22;14792;50.886;6.468;2023-07-29T08:32:23;20.70;99.90
27306;DHT22;14792;50.886;6.468;2023-07-29T08:35:25;20.90;99.90
27306;DHT22;14792;50.886;6.468;2023-07-29T08:38:26;20.90;99.90
27306;DHT22;14792;50.886;6.468;2023-07-29T08:44:51;20.80;99.90
27306;DHT22;14792;50.886;6.468;2023-07-29T08:47:53;20.60;99.90
27306;DHT22;14792;50.886;6.468;2023-07-29T08:50:54;20.60;99.90
27306;DHT22;14792;50.886;6.468;2023-07-29T08:53:55;20.70;99.90
27306;DHT22;14792;50.886;6.468;2023-07-29T08:56:57;20.80;99.90
27306;DHT22;14792;50.886;6.468;2023-07-29T08:59:59;21.00;99.90
27306;DHT22;14792;50.886;6.468;2023-07-29T09:03:00;20.90;99.90
27306;DHT22;14792;50.886;6.468;2023-07-29T09:06:02;21.10;99.90
27306;DHT22;14792;50.886;6.468;2023-07-29T09:09:04;21.30;99.90
27306;DHT22;14792;50.886;6.468;2023-07-29T09:12:07;21.50;99.90
27306;DHT22;14792;50.886;6.468;2023-07-29T09:15:09;21.70;99.90
27306;DHT22;14792;50.886;6.468;2023-07-29T09:18:18;21.70;99.90
27306;DHT22;14792;50.886;6.468;2023-07-29T09:21:24;21.70;99.90
27306;DHT22;14792;50.886;6.468;2023-07-29T09:24:29;21.70;99.90
27306;DHT22;14792;50.886;6.468;2023-07-29T09:27:30;21.60;99.90
27306;DHT22;14792;50.886;6.468;2023-07-29T09:30:32;21.80;99.90
27306;DHT22;14792;50.886;6.468;2023-07-29T09:33:34;21.90;99.90
27306;DHT22;14792;50.886;6.468;2023-07-29T09:36:36;21.70;99.90
27306;DHT22;14792;50.886;6.468;2023-07-29T09:39:38;21.50;99.90
27306;DHT22;14792;50.886;6.468;2023-07-29T09:42:40;21.20;99.90
27306;DHT22;14792;50.886;6.468;2023-07-29T09:45:41;21.00;99.90
27306;DHT22;14792;50.886;6.468;2023-07-29T09:48:43;21.00;99.90
27306;DHT22;14792;50.886;6.468;2023-07-29T09:51:45;21.00;99.90
27306;DHT22;14792;50.886;6.468;2023-07-29T09:54:46;21.00;99.90
27306;DHT22;14792;50.886;6.468;2023-07-29T09:57:48;20.90;99.90
27306;DHT22;14792;50.886;6.468;2023-07-29T10:00:49;20.90;99.90
27306;DHT22;14792;50.886;6.468;2023-07-29T10:03:51;20.80;99.90
27306;DHT22;14792;50.886;6.468;2023-07-29T10:06:52;20.50;99.90
27306;DHT22;14792;50.886;6.468;2023-07-29T10:09:54;20.50;99.90
27306;DHT22;14792;50.886;6.468;2023-07-29T10:12:56;20.70;99.90
27306;DHT22;14792;50.886;6.468;2023-07-29T10:15:58;20.70;99.90
27306;DHT22;14792;50.886;6.468;2023-07-29T10:18:59;20.70;99.90
27306;DHT22;14792;50.886;6.468;2023-07-29T10:22:01;20.60;99.90
27306;DHT22;14792;50.886;6.468;2023-07-29T10:25:18;20.60;99.90
27306;DHT22;14792;50.886;6.468;2023-07-29T10:28:10;20.60;99.90
27306;DHT22;14792;50.886;6.468;2023-07-29T10:31:12;20.50;99.90
27306;DHT22;14792;50.886;6.468;2023-07-29T10:34:13;20.60;99.90
27306;DHT22;14792;50.886;6.468;2023-07-29T10:37:15;21.00;99.90
27306;DHT22;14792;50.886;6.468;2023-07-29T10:40:16;21.40;99.90
27306;DHT22;14792;50.886;6.468;2023-07-29T10:43:28;22.30;99.90
27306;DHT22;14792;50.886;6.468;2023-07-29T10:46:28;22.70;99.90
27306;DHT22;14792;50.886;6.468;2023-07-29T10:49:30;22.30;99.90
27306;DHT22;14792;50.886;6.468;2023-07-29T10:55:38;22.40;99.90
27306;DHT22;14792;50.886;6.468;2023-07-29T10:58:41;22.40;99.90
27306;DHT22;14792;50.886;6.468;2023-07-29T11:01:42;22.50;99.90
27306;DHT22;14792;50.886;6.468;2023-07-29T11:04:47;22.60;99.90
27306;DHT22;14792;50.886;6.468;2023-07-29T11:07:49;22.90;99.90
27306;DHT22;14792;50.886;6.468;2023-07-29T11:14:04;22.80;99.90
27306;DHT22;14792;50.886;6.468;2023-07-29T11:17:09;22.90;99.90
27306;DHT22;14792;50.886;6.468;2023-07-29T11:20:11;23.00;99.90
27306;DHT22;14792;50.886;6.468;2023-07-29T11:23:12;23.50;99.90
27306;DHT22;14792;50.886;6.468;2023-07-29T11:26:14;23.40;99.90
27306;DHT22;14792;50.886;6.468;2023-07-29T11:29:16;23.60;99.90
27306;DHT22;14792;50.886;6.468;2023-07-29T11:32:17;23.60;99.90
27306;DHT22;14792;50.886;6.468;2023-07-29T11:35:19;23.60;99.90
27306;DHT22;14792;50.886;6.468;2023-07-29T11:38:21;23.50;99.90
27306;DHT22;14792;50.886;6.468;2023-07-29T11:41:22;22.90;99.90
27306;DHT22;14792;50.886;6.468;2023-07-29T11:44:24;22.90;99.90
27306;DHT22;14792;50.886;6.468;2023-07-29T11:47:25;22.70;99.90
27306;DHT22;14792;50.886;6.468;2023-07-29T11:50:27;22.90;99.90
27306;DHT22;14792;50.886;6.468;2023-07-29T11:53:29;23.10;99.90
27306;DHT22;14792;50.886;6.468;2023-07-29T11:56:30;23.20;99.90
27306;DHT22;14792;50.886;6.468;2023-07-29T11:59:32;23.00;99.90
27306;DHT22;14792;50.886;6.468;2023-07-29T12:02:34;23.30;99.90
27306;DHT22;14792;50.886;6.468;2023-07-29T12:05:35;23.40;99.90
27306;DHT22;14792;50.886;6.468;2023-07-29T12:08:41;23.50;99.90
27306;DHT22;14792;50.886;6.468;2023-07-29T12:11:40;23.80;99.90
27306;DHT22;14792;50.886;6.468;2023-07-29T12:14:47;24.20;99.90
27306;DHT22;14792;50.886;6.468;2023-07-29T12:17:49;24.50;99.90
27306;DHT22;14792;50.886;6.468;2023-07-29T12:20:50;24.00;99.90
27306;DHT22;14792;50.886;6.468;2023-07-29T12:23:52;24.40;99.90
27306;DHT22;14792;50.886;6.468;2023-07-29T12:26:53;24.80;99.90
27306;DHT22;14792;50.886;6.468;2023-07-29T12:29:55;24.90;99.90
27306;DHT22;14792;50.886;6.468;2023-07-29T12:32:56;25.00;99.90
27306;DHT22;14792;50.886;6.468;2023-07-29T12:35:58;24.90;99.90
27306;DHT22;14792;50.886;6.468;2023-07-29T12:39:00;24.60;99.90
27306;DHT22;14792;50.886;6.468;2023-07-29T12:42:02;24.40;99.90
27306;DHT22;14792;50.886;6.468;2023-07-29T12:45:03;24.60;99.90
27306;DHT22;14792;50.886;6.468;2023-07-29T12:48:05;24.60;99.90
27306;DHT22;14792;50.886;6.468;2023-07-29T12:51:07;24.30;99.90
27306;DHT22;14792;50.886;6.468;2023-07-29T12:54:09;24.10;99.90
27306;DHT22;14792;50.886;6.468;2023-07-29T12:57:10;24.00;99.90
27306;DHT22;14792;50.886;6.468;2023-07-29T13:00:12;23.80;99.90
27306;DHT22;14792;50.886;6.468;2023-07-29T13:03:13;23.40;99.90
27306;DHT22;14792;50.886;6.468;2023-07-29T13:06:15;23.30;99.90
27306;DHT22;14792;50.886;6.468;2023-07-29T13:09:17;23.20;99.90
27306;DHT22;14792;50.886;6.468;2023-07-29T13:12:18;23.10;99.90
27306;DHT22;14792;50.886;6.468;2023-07-29T13:15:22;22.60;99.90
27306;DHT22;14792;50.886;6.468;2023-07-29T13:18:23;22.30;99.90
27306;DHT22;14792;50.886;6.468;2023-07-29T13:21:25;22.00;99.90
27306;DHT22;14792;50.886;6.468;2023-07-29T13:24:27;21.60;99.90
27306;DHT22;14792;50.886;6.468;2023-07-29T13:27:28;21.50;99.90
27306;DHT22;14792;50.886;6.468;2023-07-29T13:30:30;21.30;99.90
27306;DHT22;14792;50.886;6.468;2023-07-29T13:33:31;20.90;99.90
27306;DHT22;14792;50.886;6.468;2023-07-29T13:36:33;20.60;99.90
27306;DHT22;14792;50.886;6.468;2023-07-29T13:39:34;20.80;99.90
27306;DHT22;14792;50.886;6.468;2023-07-29T13:42:38;20.80;99.90
27306;DHT22;14792;50.886;6.468;2023-07-29T13:45:40;20.80;99.90
27306;DHT22;14792;50.886;6.468;2023-07-29T13:48:42;20.80;99.90
27306;DHT22;14792;50.886;6.468;2023-07-29T13:51:43;21.00;99.90
27306;DHT22;14792;50.886;6.468;2023-07-29T13:54:45;20.70;99.90
27306;DHT22;14792;50.886;6.468;2023-07-29T13:57:46;20.40;99.90
27306;DHT22;14792;50.886;6.468;2023-07-29T14:00:48;20.30;99.90
27306;DHT22;14792;50.886;6.468;2023-07-29T14:03:49;20.30;99.90
27306;DHT22;14792;50.886;6.468;2023-07-29T14:06:51;20.60;99.90
27306;DHT22;14792;50.886;6.468;2023-07-29T14:09:53;20.60;99.90
27306;DHT22;14792;50.886;6.468;2023-07-29T14:12:54;20.50;99.90
27306;DHT22;14792;50.886;6.468;2023-07-29T14:15:56;20.30;99.90
27306;DHT22;14792;50.886;6.468;2023-07-29T14:18:57;20.50;99.90
27306;DHT22;14792;50.886;6.468;2023-07-29T14:21:59;20.70;99.90
27306;DHT22;14792;50.886;6.468;2023-07-29T14:25:01;20.70;99.90
27306;DHT22;14792;50.886;6.468;2023-07-29T14:28:02;20.80;99.90
27306;DHT22;14792;50.886;6.468;2023-07-29T14:31:04;21.00;99.90
27306;DHT22;14792;50.886;6.468;2023-07-29T14:34:08;21.00;99.90
27306;DHT22;14792;50.886;6.468;2023-07-29T14:37:10;21.10;99.90
27306;DHT22;14792;50.886;6.468;2023-07-29T14:40:12;20.90;99.90
27306;DHT22;14792;50.886;6.468;2023-07-29T14:43:13;20.90;99.90
27306;DHT22;14792;50.886;6.468;2023-07-29T14:46:14;20.90;99.90
27306;DHT22;14792;50.886;6.468;2023-07-29T14:49:16;20.70;99.90
27306;DHT22;14792;50.886;6.468;2023-07-29T14:52:18;20.80;99.90
27306;DHT22;14792;50.886;6.468;2023-07-29T14:55:19;21.20;99.90
27306;DHT22;14792;50.886;6.468;2023-07-29T14:58:21;21.70;99.90
27306;DHT22;14792;50.886;6.468;2023-07-29T15:01:22;22.20;99.90
27306;DHT22;14792;50.886;6.468;2023-07-29T15:04:24;22.40;99.90
27306;DHT22;14792;50.886;6.468;2023-07-29T15:07:26;22.60;99.90
27306;DHT22;14792;50.886;6.468;2023-07-29T15:10:27;22.20;99.90
27306;DHT22;14792;50.886;6.468;2023-07-29T15:13:29;22.10;99.90
27306;DHT22;14792;50.886;6.468;2023-07-29T15:16:30;21.70;99.90
27306;DHT22;14792;50.886;6.468;2023-07-29T15:19:32;21.90;99.90
27306;DHT22;14792;50.886;6.468;2023-07-29T15:22:34;21.90;99.90
27306;DHT22;14792;50.886;6.468;2023-07-29T15:25:41;21.90;99.90
27306;DHT22;14792;50.886;6.468;2023-07-29T15:28:38;21.90;99.90
27306;DHT22;14792;50.886;6.468;2023-07-29T15:31:40;21.70;99.90
27306;DHT22;14792;50.886;6.468;2023-07-29T15:34:41;21.50;99.90
27306;DHT22;14792;50.886;6.468;2023-07-29T15:37:43;21.30;99.90
27306;DHT22;14792;50.886;6.468;2023-07-29T15:40:44;21.50;99.90
27306;DHT22;14792;50.886;6.468;2023-07-29T15:43:46;21.40;99.90
27306;DHT22;14792;50.886;6.468;2023-07-29T15:46:48;21.40;99.90
27306;DHT22;14792;50.886;6.468;2023-07-29T15:49:49;21.40;99.90
27306;DHT22;14792;50.886;6.468;2023-07-29T15:52:51;21.40;99.90
27306;DHT22;14792;50.886;6.468;2023-07-29T15:55:52;21.50;99.90
27306;DHT22;14792;50.886;6.468;2023-07-29T15:58:54;21.70;99.90
27306;DHT22;14792;50.886;6.468;2023-07-29T16:01:56;22.20;99.90
27306;DHT22;14792;50.886;6.468;2023-07-29T16:04:57;22.50;99.90
27306;DHT22;14792;50.886;6.468;2023-07-29T16:07:59;22.20;99.90
27306;DHT22;14792;50.886;6.468;2023-07-29T16:11:00;22.10;99.90
27306;DHT22;14792;50.886;6.468;2023-07-29T16:14:02;22.60;99.90
27306;DHT22;14792;50.886;6.468;2023-07-29T16:17:04;22.30;99.90
27306;DHT22;14792;50.886;6.468;2023-07-29T16:20:06;21.90;99.90
27306;DHT22;14792;50.886;6.468;2023-07-29T16:23:10;21.80;99.90
27306;DHT22;14792;50.886;6.468;2023-07-29T16:26:11;21.70;99.90
27306;DHT22;14792;50.886;6.468;2023-07-29T16:29:13;22.10;99.90
27306;DHT22;14792;50.886;6.468;2023-07-29T16:32:15;22.50;99.90
27306;DHT22;14792;50.886;6.468;2023-07-29T16:35:16;22.20;99.90
27306;DHT22;14792;50.886;6.468;2023-07-29T16:38:18;22.30;99.90
27306;DHT22;14792;50.886;6.468;2023-07-29T16:41:22;22.00;99.90
27306;DHT22;14792;50.886;6.468;2023-07-29T16:44:24;21.90;99.90
27306;DHT22;14792;50.886;6.468;2023-07-29T16:47:25;22.00;99.90
27306;DHT22;14792;50.886;6.468;2023-07-29T16:50:27;22.00;99.90
27306;DHT22;14792;50.886;6.468;2023-07-29T16:53:28;21.70;99.90
27306;DHT22;14792;50.886;6.468;2023-07-29T16:56:30;21.40;99.90
27306;DHT22;14792;50.886;6.468;2023-07-29T16:59:31;21.40;99.90
27306;DHT22;14792;50.886;6.468;2023-07-29T17:02:33;21.40;99.90
27306;DHT22;14792;50.886;6.468;2023-07-29T17:05:35;21.30;99.90
27306;DHT22;14792;50.886;6.468;2023-07-29T17:08:41;21.30;99.90
27306;DHT22;14792;50.886;6.468;2023-07-29T17:11:42;21.20;99.90
27306;DHT22;14792;50.886;6.468;2023-07-29T17:14:44;20.90;99.90
27306;DHT22;14792;50.886;6.468;2023-07-29T17:17:46;21.00;99.90
27306;DHT22;14792;50.886;6.468;2023-07-29T17:20:47;21.00;99.90
27306;DHT22;14792;50.886;6.468;2023-07-29T17:23:49;20.90;99.90
27306;DHT22;14792;50.886;6.468;2023-07-29T17:26:50;21.10;99.90
27306;DHT22;14792;50.886;6.468;2023-07-29T17:29:52;21.00;99.90
27306;DHT22;14792;50.886;6.468;2023-07-29T17:32:54;21.00;99.90
27306;DHT22;14792;50.886;6.468;2023-07-29T17:35:55;20.90;99.90
27306;DHT22;14792;50.886;6.468;2023-07-29T17:38:57;20.90;99.90
27306;DHT22;14792;50.886;6.468;2023-07-29T17:41:59;20.60;99.90
27306;DHT22;14792;50.886;6.468;2023-07-29T17:45:00;20.30;99.90
27306;DHT22;14792;50.886;6.468;2023-07-29T17:48:02;20.40;99.90
27306;DHT22;14792;50.886;6.468;2023-07-29T17:51:04;20.40;99.90
27306;DHT22;14792;50.886;6.468;2023-07-29T17:54:05;20.30;99.90
27306;DHT22;14792;50.886;6.468;2023-07-29T17:57:10;20.10;99.90
27306;DHT22;14792;50.886;6.468;2023-07-29T18:00:11;20.10;99.90
27306;DHT22;14792;50.886;6.468;2023-07-29T18:03:13;20.10;99.90
27306;DHT22;14792;50.886;6.468;2023-07-29T18:06:15;20.10;99.90
27306;DHT22;14792;50.886;6.468;2023-07-29T18:09:16;20.10;99.90
27306;DHT22;14792;50.886;6.468;2023-07-29T18:12:18;20.10;99.90
27306;DHT22;14792;50.886;6.468;2023-07-29T18:15:19;20.10;99.90
27306;DHT22;14792;50.886;6.468;2023-07-29T18:18:21;20.10;99.90
27306;DHT22;14792;50.886;6.468;2023-07-29T18:21:22;20.20;99.90
27306;DHT22;14792;50.886;6.468;2023-07-29T18:24:24;20.20;99.90
27306;DHT22;14792;50.886;6.468;2023-07-29T18:27:26;20.20;99.90
27306;DHT22;14792;50.886;6.468;2023-07-29T18:30:27;20.10;99.90
27306;DHT22;14792;50.886;6.468;2023-07-29T18:33:31;20.20;99.90
27306;DHT22;14792;50.886;6.468;2023-07-29T18:36:33;20.20;99.90
27306;DHT22;14792;50.886;6.468;2023-07-29T18:39:34;20.10;99.90
27306;DHT22;14792;50.886;6.468;2023-07-29T18:42:38;20.10;99.90
27306;DHT22;14792;50.886;6.468;2023-07-29T18:45:41;20.10;99.90
27306;DHT22;14792;50.886;6.468;2023-07-29T18:48:42;20.10;99.90
27306;DHT22;14792;50.886;6.468;2023-07-29T18:51:44;20.10;99.90
27306;DHT22;14792;50.886;6.468;2023-07-29T18:54:45;20.00;99.90
27306;DHT22;14792;50.886;6.468;2023-07-29T18:57:47;19.80;99.90
27306;DHT22;14792;50.886;6.468;2023-07-29T19:00:48;19.70;99.90
27306;DHT22;14792;50.886;6.468;2023-07-29T19:03:50;19.70;99.90
27306;DHT22;14792;50.886;6.468;2023-07-29T19:06:52;19.80;99.90
27306;DHT22;14792;50.886;6.468;2023-07-29T19:09:54;19.80;99.90
27306;DHT22;14792;50.886;6.468;2023-07-29T19:12:56;19.70;99.90
27306;DHT22;14792;50.886;6.468;2023-07-29T19:15:58;19.70;99.90
27306;DHT22;14792;50.886;6.468;2023-07-29T19:18:59;19.60;99.90
27306;DHT22;14792;50.886;6.468;2023-07-29T19:22:01;19.60;99.90